createdAt,value
2022-11-07T00:03:26.128Z,5.38
2022-11-07T00:09:28.678Z,4.97
2022-11-07T00:15:31.148Z,5.07
2022-11-07T00:21:33.400Z,5.80
2022-11-07T00:27:35.680Z,5.35
2022-11-07T00:39:40.879Z,6.57
2022-11-07T00:45:45.244Z,5.60
2022-11-07T00:51:47.370Z,5.55
2022-11-07T00:57:49.520Z,6.50
2022-11-07T01:04:10.656Z,6.28
2022-11-07T01:10:12.692Z,6.03
2022-11-07T01:16:15.056Z,6.57
2022-11-07T01:22:17.183Z,7.72
2022-11-07T01:28:19.283Z,7.83
2022-11-07T01:34:21.523Z,7.00
2022-11-07T01:40:23.806Z,6.07
2022-11-07T01:46:35.304Z,6.83
2022-11-07T01:52:42.153Z,6.43
2022-11-07T01:58:45.821Z,7.22
2022-11-07T02:04:48.307Z,6.28
2022-11-07T02:10:51.444Z,6.93
2022-11-07T02:16:54.029Z,6.38
2022-11-07T02:23:09.464Z,7.22
2022-11-07T02:29:13.273Z,6.35
2022-11-07T02:35:34.472Z,7.82
2022-11-07T02:41:36.670Z,8.35
2022-11-07T02:47:38.859Z,7.80
2022-11-07T02:53:41.167Z,7.70
2022-11-07T02:59:43.333Z,7.75
2022-11-07T03:05:45.492Z,6.67
2022-11-07T03:11:48.083Z,7.75
2022-11-07T03:17:50.265Z,7.45
2022-11-07T03:23:52.654Z,7.93
2022-11-07T03:29:55.027Z,7.20
2022-11-07T03:35:57.372Z,8.00
2022-11-07T03:41:59.635Z,8.13
2022-11-07T03:48:01.896Z,8.05
2022-11-07T03:54:04.310Z,8.57
2022-11-07T04:00:07.602Z,9.15
2022-11-07T04:06:14.022Z,8.02
2022-11-07T04:12:35.053Z,7.03
2022-11-07T04:18:37.288Z,8.93
2022-11-07T04:24:45.402Z,8.63
2022-11-07T04:30:48.160Z,8.85
2022-11-07T04:36:50.490Z,7.75
2022-11-07T04:42:52.970Z,9.05
2022-11-07T04:48:55.154Z,9.77
2022-11-07T04:54:57.378Z,9.40
2022-11-07T05:00:59.530Z,9.52
2022-11-07T05:07:01.629Z,8.07
2022-11-07T05:13:03.752Z,8.53
2022-11-07T05:19:06.030Z,8.40
2022-11-07T05:25:08.833Z,10.32
2022-11-07T05:37:17.826Z,8.63
2022-11-07T05:43:20.095Z,8.73
2022-11-07T05:49:22.619Z,10.43
2022-11-07T05:55:25.863Z,8.98
2022-11-07T06:01:28.037Z,9.65
2022-11-07T06:07:33.167Z,9.55
2022-11-07T06:13:35.440Z,8.02
2022-11-07T06:19:37.719Z,8.90
2022-11-07T06:25:40.077Z,7.60
2022-11-07T06:31:42.255Z,8.25
2022-11-07T06:37:44.652Z,8.63
2022-11-07T06:43:46.846Z,8.63
2022-11-07T06:49:49.055Z,8.13
2022-11-07T06:55:51.390Z,7.45
2022-11-07T07:01:53.776Z,10.88
2022-11-07T07:07:56.347Z,8.18
2022-11-07T07:14:02.100Z,8.18
2022-11-07T07:20:05.729Z,8.43
2022-11-07T07:26:12.920Z,7.75
2022-11-07T07:32:15.108Z,7.30
2022-11-07T07:38:17.302Z,7.10
2022-11-07T07:44:19.595Z,7.55
2022-11-07T07:50:21.807Z,7.30
2022-11-07T07:56:24.043Z,6.50
2022-11-07T08:02:26.115Z,5.78
2022-11-07T08:08:31.419Z,6.43
2022-11-07T08:14:36.314Z,6.00
2022-11-07T08:20:38.478Z,5.63
2022-11-07T08:26:40.760Z,5.80
2022-11-07T08:32:43.000Z,6.40
2022-11-07T08:38:45.118Z,6.55
2022-11-07T08:44:47.430Z,6.55
2022-11-07T08:50:56.518Z,8.27
2022-11-07T08:56:58.753Z,7.25
2022-11-07T09:09:28.945Z,6.80
2022-11-07T09:15:31.160Z,5.47
2022-11-07T09:21:33.311Z,6.80
2022-11-07T09:27:36.187Z,4.90
2022-11-07T09:33:38.403Z,13.07
2022-11-07T09:39:40.536Z,9.57
2022-11-07T09:46:00.972Z,6.82
2022-11-07T09:52:41.231Z,7.03
2022-11-07T09:58:44.769Z,6.97
2022-11-07T10:04:49.954Z,5.40
2022-11-07T10:11:01.350Z,6.72
2022-11-07T10:17:34.884Z,7.10
2022-11-07T10:23:54.410Z,8.57
2022-11-07T10:29:56.532Z,7.43
2022-11-07T10:36:22.128Z,13.20
2022-11-07T10:42:29.002Z,7.78
2022-11-07T10:48:33.416Z,6.38
2022-11-07T10:54:35.519Z,6.78
2022-11-07T11:00:41.758Z,6.30
2022-11-07T11:06:43.972Z,6.88
2022-11-07T11:12:47.776Z,7.57
2022-11-07T11:19:00.543Z,6.63
2022-11-07T11:31:26.070Z,7.35
2022-11-07T11:37:28.988Z,7.72
2022-11-07T11:43:44.613Z,6.78
2022-11-07T11:49:56.302Z,6.78
2022-11-07T11:56:07.436Z,6.73
2022-11-07T12:02:47.763Z,6.97
2022-11-07T12:08:56.812Z,7.30
2022-11-07T12:15:28.938Z,8.73
2022-11-07T12:21:34.933Z,6.95
2022-11-07T12:28:03.814Z,7.85
2022-11-07T12:34:14.687Z,7.65
2022-11-07T12:40:35.777Z,7.43
2022-11-07T12:47:08.614Z,14.32
2022-11-07T12:53:26.767Z,8.47
2022-11-07T12:59:31.563Z,7.78
2022-11-07T13:05:50.441Z,7.55
2022-11-07T13:12:09.286Z,7.97
2022-11-07T13:18:25.826Z,7.47
2022-11-07T13:24:29.896Z,8.55
2022-11-07T13:30:37.093Z,8.57
2022-11-07T13:36:39.697Z,8.82
2022-11-07T13:48:55.669Z,7.90
2022-11-07T13:55:06.122Z,8.90
2022-11-07T14:01:13.350Z,9.90
2022-11-07T14:07:15.665Z,13.55
2022-11-07T14:13:41.499Z,16.55
2022-11-07T14:19:44.808Z,38.13
2022-11-07T14:25:55.985Z,9.82
2022-11-07T14:32:00.455Z,8.38
2022-11-07T14:38:12.003Z,8.48
2022-11-07T14:44:17.958Z,8.57
2022-11-07T14:50:25.224Z,8.85
2022-11-07T14:56:34.215Z,9.85
2022-11-07T15:02:36.752Z,11.73
2022-11-07T15:08:39.030Z,8.85
2022-11-07T15:14:41.374Z,9.43
2022-11-07T15:20:43.910Z,11.82
2022-11-07T15:26:46.048Z,10.45
2022-11-07T15:32:48.888Z,10.57
2022-11-07T15:38:52.021Z,10.40
2022-11-07T15:44:54.153Z,13.15
2022-11-07T15:50:56.804Z,16.90
2022-11-07T16:04:11.526Z,18.75
2022-11-07T16:10:26.194Z,13.88
2022-11-07T16:16:32.764Z,11.20
2022-11-07T16:22:35.024Z,12.20
2022-11-07T16:28:37.565Z,12.95
2022-11-07T16:34:40.066Z,12.60
2022-11-07T16:40:42.680Z,12.73
2022-11-07T16:52:47.597Z,13.95
2022-11-07T16:58:50.089Z,13.73
2022-11-07T17:04:54.765Z,14.05
2022-11-07T17:10:57.254Z,15.55
2022-11-07T17:17:01.997Z,17.02
2022-11-07T17:23:04.059Z,19.42
2022-11-07T17:29:08.929Z,15.80
2022-11-07T17:35:31.289Z,14.73
2022-11-07T17:41:33.699Z,18.13
2022-11-07T17:47:36.136Z,23.40
2022-11-07T17:53:38.946Z,17.90
2022-11-07T17:59:45.712Z,20.55
2022-11-07T18:05:49.522Z,20.75
2022-11-07T18:11:51.949Z,25.13
2022-11-07T18:17:54.204Z,29.55
2022-11-07T18:23:57.745Z,27.52
2022-11-07T18:30:00.011Z,29.33
2022-11-07T18:36:07.665Z,33.55
2022-11-07T18:42:09.913Z,32.50
2022-11-07T18:48:12.267Z,38.28
2022-11-07T18:54:15.065Z,39.38
2022-11-07T19:00:17.715Z,40.00
2022-11-07T19:06:21.626Z,34.08
2022-11-07T19:12:24.138Z,29.42
2022-11-07T19:18:26.280Z,29.38
2022-11-07T19:24:28.524Z,31.48
2022-11-07T19:30:33.610Z,24.55
2022-11-07T19:36:37.340Z,21.92
2022-11-07T19:42:39.601Z,19.35
2022-11-07T19:48:42.935Z,19.70
2022-11-07T19:54:45.754Z,18.00
2022-11-07T20:06:50.657Z,16.48
2022-11-07T20:12:53.118Z,16.58
2022-11-07T20:18:55.291Z,17.05
2022-11-07T20:24:57.394Z,16.27
2022-11-07T20:30:59.461Z,20.20
2022-11-07T20:37:01.885Z,21.10
2022-11-07T20:43:05.597Z,20.40
2022-11-07T20:49:11.348Z,19.58
2022-11-07T20:55:13.605Z,18.45
2022-11-07T21:01:21.619Z,19.77
2022-11-07T21:07:23.861Z,19.92
2022-11-07T21:13:26.168Z,17.90
2022-11-07T21:19:29.561Z,19.63
2022-11-07T21:25:31.863Z,23.27
2022-11-07T21:31:35.423Z,28.10
2022-11-07T21:37:37.554Z,31.77
2022-11-07T21:43:39.729Z,32.13
2022-11-07T21:49:41.832Z,28.97
2022-11-07T21:55:43.965Z,28.83
2022-11-07T22:01:48.911Z,29.52
2022-11-07T22:07:51.443Z,28.40
2022-11-07T22:13:53.852Z,27.45
2022-11-07T22:19:55.970Z,28.50
2022-11-07T22:26:10.659Z,25.03
2022-11-07T22:32:12.812Z,25.83
2022-11-07T22:38:14.886Z,26.47
2022-11-07T22:44:17.081Z,22.67
2022-11-07T22:50:19.503Z,24.67
2022-11-07T22:56:21.723Z,23.48
2022-11-07T23:02:24.031Z,23.00
2022-11-07T23:08:26.393Z,23.95
2022-11-07T23:14:28.565Z,24.60
2022-11-07T23:20:49.451Z,22.95
2022-11-07T23:26:52.020Z,24.05
2022-11-07T23:32:54.132Z,23.33
2022-11-07T23:38:56.485Z,17.38
2022-11-07T23:45:17.290Z,14.73
2022-11-07T23:51:19.413Z,19.40
2022-11-07T23:57:21.759Z,18.57
